sensor_id;sensor_type;location;lat;lon;timestamp;temperature;humidity
70421;SHT31;57848;51.938;15.520;2023-04-03T00:02:08;0.61;74.31
70421;SHT31;57848;51.938;15.520;2023-04-03T00:04:34;0.62;74.16
70421;SHT31;57848;51.938;15.520;2023-04-03T00:07:00;0.62;74.31
70421;SHT31;57848;51.938;15.520;2023-04-03T00:09:25;0.56;74.53
70421;SHT31;57848;51.938;15.520;2023-04-03T00:11:51;0.56;74.73
70421;SHT31;57848;51.938;15.520;2023-04-03T00:14:16;0.58;74.99
70421;SHT31;57848;51.938;15.520;2023-04-03T00:16:42;0.52;75.12
70421;SHT31;57848;51.938;15.520;2023-04-03T00:19:07;0.45;75.52
70421;SHT31;57848;51.938;15.520;2023-04-03T00:21:33;0.41;75.75
70421;SHT31;57848;51.938;15.520;2023-04-03T00:23:58;0.42;75.51
70421;SHT31;57848;51.938;15.520;2023-04-03T00:26:24;0.35;75.78
70421;SHT31;57848;51.938;15.520;2023-04-03T00:28:49;0.38;76.07
70421;SHT31;57848;51.938;15.520;2023-04-03T00:31:15;0.29;76.44
70421;SHT31;57848;51.938;15.520;2023-04-03T00:33:41;0.28;76.66
70421;SHT31;57848;51.938;15.520;2023-04-03T00:36:08;0.28;76.88
70421;SHT31;57848;51.938;15.520;2023-04-03T00:38:35;0.24;76.72
70421;SHT31;57848;51.938;15.520;2023-04-03T00:41:00;0.25;76.82
70421;SHT31;57848;51.938;15.520;2023-04-03T00:43:26;0.24;76.94
70421;SHT31;57848;51.938;15.520;2023-04-03T00:45:54;0.24;77.13
70421;SHT31;57848;51.938;15.520;2023-04-03T00:49:04;0.17;77.35
70421;SHT31;57848;51.938;15.520;2023-04-03T00:51:17;0.14;77.20
70421;SHT31;57848;51.938;15.520;2023-04-03T00:53:47;0.17;77.33
70421;SHT31;57848;51.938;15.520;2023-04-03T00:56:16;0.14;77.47
70421;SHT31;57848;51.938;15.520;2023-04-03T00:58:48;0.11;77.80
70421;SHT31;57848;51.938;15.520;2023-04-03T01:01:17;0.08;77.99
70421;SHT31;57848;51.938;15.520;2023-04-03T01:03:43;0.05;78.01
70421;SHT31;57848;51.938;15.520;2023-04-03T01:06:09;0.03;78.17
70421;SHT31;57848;51.938;15.520;2023-04-03T01:08:35;-0.02;78.71
70421;SHT31;57848;51.938;15.520;2023-04-03T01:11:00;-0.03;78.77
70421;SHT31;57848;51.938;15.520;2023-04-03T01:13:29;-0.10;79.14
70421;SHT31;57848;51.938;15.520;2023-04-03T01:15:55;-0.10;78.95
70421;SHT31;57848;51.938;15.520;2023-04-03T01:18:24;-0.09;79.05
70421;SHT31;57848;51.938;15.520;2023-04-03T01:26:03;-0.06;79.12
70421;SHT31;57848;51.938;15.520;2023-04-03T01:28:31;-0.07;78.99
70421;SHT31;57848;51.938;15.520;2023-04-03T01:33:35;-0.09;79.33
70421;SHT31;57848;51.938;15.520;2023-04-03T01:36:01;-0.16;79.39
70421;SHT31;57848;51.938;15.520;2023-04-03T01:38:27;-0.17;79.69
70421;SHT31;57848;51.938;15.520;2023-04-03T01:40:53;-0.23;79.94
70421;SHT31;57848;51.938;15.520;2023-04-03T01:43:18;-0.24;80.10
70421;SHT31;57848;51.938;15.520;2023-04-03T01:45:44;-0.21;80.10
70421;SHT31;57848;51.938;15.520;2023-04-03T01:48:12;-0.35;80.27
70421;SHT31;57848;51.938;15.520;2023-04-03T01:50:37;-0.28;80.35
70421;SHT31;57848;51.938;15.520;2023-04-03T01:53:02;-0.28;80.45
70421;SHT31;57848;51.938;15.520;2023-04-03T01:55:28;-0.27;80.36
70421;SHT31;57848;51.938;15.520;2023-04-03T01:57:53;-0.24;80.17
70421;SHT31;57848;51.938;15.520;2023-04-03T02:00:19;-0.28;80.27
70421;SHT31;57848;51.938;15.520;2023-04-03T02:02:44;-0.31;80.46
70421;SHT31;57848;51.938;15.520;2023-04-03T02:05:10;-0.35;80.73
70421;SHT31;57848;51.938;15.520;2023-04-03T02:07:35;-0.41;80.97
70421;SHT31;57848;51.938;15.520;2023-04-03T02:10:01;-0.40;80.87
70421;SHT31;57848;51.938;15.520;2023-04-03T02:12:26;-0.42;80.98
70421;SHT31;57848;51.938;15.520;2023-04-03T02:14:52;-0.42;80.99
70421;SHT31;57848;51.938;15.520;2023-04-03T02:17:17;-0.48;81.28
70421;SHT31;57848;51.938;15.520;2023-04-03T02:19:42;-0.50;81.46
70421;SHT31;57848;51.938;15.520;2023-04-03T02:22:08;-0.54;81.44
70421;SHT31;57848;51.938;15.520;2023-04-03T02:24:34;-0.51;81.53
70421;SHT31;57848;51.938;15.520;2023-04-03T02:26:59;-0.51;81.62
70421;SHT31;57848;51.938;15.520;2023-04-03T02:29:25;-0.54;81.59
70421;SHT31;57848;51.938;15.520;2023-04-03T02:31:52;-0.53;81.83
70421;SHT31;57848;51.938;15.520;2023-04-03T02:34:17;-0.57;81.70
70421;SHT31;57848;51.938;15.520;2023-04-03T02:36:43;-0.58;81.78
70421;SHT31;57848;51.938;15.520;2023-04-03T02:39:10;-0.64;82.13
70421;SHT31;57848;51.938;15.520;2023-04-03T02:41:36;-0.64;81.98
70421;SHT31;57848;51.938;15.520;2023-04-03T02:44:09;-0.65;82.24
70421;SHT31;57848;51.938;15.520;2023-04-03T02:46:35;-0.64;82.18
70421;SHT31;57848;51.938;15.520;2023-04-03T02:49:01;-0.69;82.15
70421;SHT31;57848;51.938;15.520;2023-04-03T02:51:27;-0.66;82.11
70421;SHT31;57848;51.938;15.520;2023-04-03T02:53:53;-0.64;82.28
70421;SHT31;57848;51.938;15.520;2023-04-03T02:56:22;-0.65;82.33
70421;SHT31;57848;51.938;15.520;2023-04-03T02:58:48;-0.71;82.49
70421;SHT31;57848;51.938;15.520;2023-04-03T03:01:15;-0.75;82.43
70421;SHT31;57848;51.938;15.520;2023-04-03T03:03:40;-0.78;82.61
70421;SHT31;57848;51.938;15.520;2023-04-03T03:06:14;-0.78;82.79
70421;SHT31;57848;51.938;15.520;2023-04-03T03:08:40;-0.76;82.64
70421;SHT31;57848;51.938;15.520;2023-04-03T03:11:06;-0.76;82.79
70421;SHT31;57848;51.938;15.520;2023-04-03T03:13:32;-0.79;82.85
70421;SHT31;57848;51.938;15.520;2023-04-03T03:15:58;-0.84;82.97
70421;SHT31;57848;51.938;15.520;2023-04-03T03:18:24;-0.85;83.32
70421;SHT31;57848;51.938;15.520;2023-04-03T03:20:54;-0.81;83.25
70421;SHT31;57848;51.938;15.520;2023-04-03T03:23:21;-0.89;83.32
70421;SHT31;57848;51.938;15.520;2023-04-03T03:25:47;-0.91;83.31
70421;SHT31;57848;51.938;15.520;2023-04-03T03:28:12;-0.92;83.60
70421;SHT31;57848;51.938;15.520;2023-04-03T03:30:38;-0.92;83.49
70421;SHT31;57848;51.938;15.520;2023-04-03T03:33:03;-0.95;83.58
70421;SHT31;57848;51.938;15.520;2023-04-03T03:35:29;-0.92;83.59
70421;SHT31;57848;51.938;15.520;2023-04-03T03:37:54;-0.91;83.55
70421;SHT31;57848;51.938;15.520;2023-04-03T03:40:20;-0.99;83.56
70421;SHT31;57848;51.938;15.520;2023-04-03T03:42:45;-1.00;83.97
70421;SHT31;57848;51.938;15.520;2023-04-03T03:45:11;-1.07;84.13
70421;SHT31;57848;51.938;15.520;2023-04-03T03:47:37;-1.09;84.24
70421;SHT31;57848;51.938;15.520;2023-04-03T03:50:03;-1.05;84.32
70421;SHT31;57848;51.938;15.520;2023-04-03T03:52:29;-1.05;84.31
70421;SHT31;57848;51.938;15.520;2023-04-03T03:54:55;-1.05;84.22
70421;SHT31;57848;51.938;15.520;2023-04-03T03:57:21;-1.12;84.45
70421;SHT31;57848;51.938;15.520;2023-04-03T03:59:46;-1.15;84.43
70421;SHT31;57848;51.938;15.520;2023-04-03T04:02:15;-1.09;84.59
70421;SHT31;57848;51.938;15.520;2023-04-03T04:04:41;-1.07;84.63
70421;SHT31;57848;51.938;15.520;2023-04-03T04:07:06;-1.16;84.76
70421;SHT31;57848;51.938;15.520;2023-04-03T04:09:33;-1.17;84.87
70421;SHT31;57848;51.938;15.520;2023-04-03T04:11:58;-1.15;84.69
70421;SHT31;57848;51.938;15.520;2023-04-03T04:14:24;-1.17;84.73
70421;SHT31;57848;51.938;15.520;2023-04-03T04:16:51;-1.16;84.75
70421;SHT31;57848;51.938;15.520;2023-04-03T04:19:21;-1.21;85.01
70421;SHT31;57848;51.938;15.520;2023-04-03T04:21:48;-1.27;85.08
70421;SHT31;57848;51.938;15.520;2023-04-03T04:24:13;-1.26;85.18
70421;SHT31;57848;51.938;15.520;2023-04-03T04:26:39;-1.26;85.14
70421;SHT31;57848;51.938;15.520;2023-04-03T04:29:06;-1.27;85.33
70421;SHT31;57848;51.938;15.520;2023-04-03T04:31:34;-1.30;85.36
70421;SHT31;57848;51.938;15.520;2023-04-03T04:33:59;-1.20;85.31
70421;SHT31;57848;51.938;15.520;2023-04-03T04:36:25;-1.21;85.35
70421;SHT31;57848;51.938;15.520;2023-04-03T04:38:50;-1.27;85.41
70421;SHT31;57848;51.938;15.520;2023-04-03T04:41:20;-1.34;85.67
70421;SHT31;57848;51.938;15.520;2023-04-03T04:43:48;-1.30;85.71
70421;SHT31;57848;51.938;15.520;2023-04-03T04:46:14;-1.27;85.66
70421;SHT31;57848;51.938;15.520;2023-04-03T04:48:45;-1.33;85.86
70421;SHT31;57848;51.938;15.520;2023-04-03T04:51:11;-1.37;85.72
70421;SHT31;57848;51.938;15.520;2023-04-03T04:53:37;-1.32;85.79
70421;SHT31;57848;51.938;15.520;2023-04-03T04:56:04;-1.26;85.66
70421;SHT31;57848;51.938;15.520;2023-04-03T04:58:31;-1.29;85.86
70421;SHT31;57848;51.938;15.520;2023-04-03T05:01:00;-1.26;85.64
70421;SHT31;57848;51.938;15.520;2023-04-03T05:03:26;-1.21;85.66
70421;SHT31;57848;51.938;15.520;2023-04-03T05:05:52;-1.25;85.94
70421;SHT31;57848;51.938;15.520;2023-04-03T05:08:17;-1.27;85.89
70421;SHT31;57848;51.938;15.520;2023-04-03T05:10:45;-1.20;85.83
70421;SHT31;57848;51.938;15.520;2023-04-03T05:13:11;-1.23;85.71
70421;SHT31;57848;51.938;15.520;2023-04-03T05:15:37;-1.15;85.62
70421;SHT31;57848;51.938;15.520;2023-04-03T05:18:02;-1.16;85.52
70421;SHT31;57848;51.938;15.520;2023-04-03T05:20:28;-1.19;85.71
70421;SHT31;57848;51.938;15.520;2023-04-03T05:22:53;-1.12;85.55
70421;SHT31;57848;51.938;15.520;2023-04-03T05:25:19;-1.03;85.10
70421;SHT31;57848;51.938;15.520;2023-04-03T05:27:44;-0.96;84.86
70421;SHT31;57848;51.938;15.520;2023-04-03T05:30:11;-1.03;85.61
70421;SHT31;57848;51.938;15.520;2023-04-03T05:32:38;-1.06;85.11
70421;SHT31;57848;51.938;15.520;2023-04-03T05:35:24;-1.03;84.99
70421;SHT31;57848;51.938;15.520;2023-04-03T05:37:53;-0.99;85.06
70421;SHT31;57848;51.938;15.520;2023-04-03T05:40:18;-0.92;85.05
70421;SHT31;57848;51.938;15.520;2023-04-03T05:42:46;-0.91;84.56
70421;SHT31;57848;51.938;15.520;2023-04-03T05:45:13;-0.84;84.41
70421;SHT31;57848;51.938;15.520;2023-04-03T05:47:38;-0.79;84.04
70421;SHT31;57848;51.938;15.520;2023-04-03T05:50:05;-0.79;84.43
70421;SHT31;57848;51.938;15.520;2023-04-03T05:52:37;-0.71;84.14
70421;SHT31;57848;51.938;15.520;2023-04-03T05:55:03;-0.66;83.89
70421;SHT31;57848;51.938;15.520;2023-04-03T05:57:32;-0.61;83.10
70421;SHT31;57848;51.938;15.520;2023-04-03T05:59:58;-0.60;83.18
70421;SHT31;57848;51.938;15.520;2023-04-03T06:02:24;-0.54;83.01
70421;SHT31;57848;51.938;15.520;2023-04-03T06:04:51;-0.45;82.62
70421;SHT31;57848;51.938;15.520;2023-04-03T06:07:20;-0.40;82.17
70421;SHT31;57848;51.938;15.520;2023-04-03T06:09:49;-0.38;82.05
70421;SHT31;57848;51.938;15.520;2023-04-03T06:12:16;-0.35;82.20
70421;SHT31;57848;51.938;15.520;2023-04-03T06:14:42;-0.26;82.12
70421;SHT31;57848;51.938;15.520;2023-04-03T06:17:08;-0.20;81.84
70421;SHT31;57848;51.938;15.520;2023-04-03T06:19:34;-0.11;81.39
70421;SHT31;57848;51.938;15.520;2023-04-03T06:22:00;-0.10;80.91
70421;SHT31;57848;51.938;15.520;2023-04-03T06:24:26;0.03;81.17
70421;SHT31;57848;51.938;15.520;2023-04-03T06:26:52;0.03;80.71
70421;SHT31;57848;51.938;15.520;2023-04-03T06:29:19;0.18;80.83
70421;SHT31;57848;51.938;15.520;2023-04-03T06:31:45;0.22;79.93
70421;SHT31;57848;51.938;15.520;2023-04-03T06:34:10;0.26;80.09
70421;SHT31;57848;51.938;15.520;2023-04-03T06:36:37;0.31;80.16
70421;SHT31;57848;51.938;15.520;2023-04-03T06:39:02;0.37;79.42
70421;SHT31;57848;51.938;15.520;2023-04-03T06:41:28;0.41;79.68
70421;SHT31;57848;51.938;15.520;2023-04-03T06:43:53;0.46;79.17
70421;SHT31;57848;51.938;15.520;2023-04-03T06:46:23;0.46;78.92
70421;SHT31;57848;51.938;15.520;2023-04-03T06:48:49;0.61;79.20
70421;SHT31;57848;51.938;15.520;2023-04-03T06:51:19;0.64;78.75
70421;SHT31;57848;51.938;15.520;2023-04-03T06:53:45;0.66;78.55
70421;SHT31;57848;51.938;15.520;2023-04-03T06:56:11;0.72;78.32
70421;SHT31;57848;51.938;15.520;2023-04-03T06:58:36;0.76;78.40
70421;SHT31;57848;51.938;15.520;2023-04-03T07:01:02;0.80;78.06
70421;SHT31;57848;51.938;15.520;2023-04-03T07:03:27;0.90;77.98
70421;SHT31;57848;51.938;15.520;2023-04-03T07:05:53;1.01;77.62
70421;SHT31;57848;51.938;15.520;2023-04-03T07:08:18;1.06;77.61
70421;SHT31;57848;51.938;15.520;2023-04-03T07:10:44;1.06;77.63
70421;SHT31;57848;51.938;15.520;2023-04-03T07:13:09;1.13;77.14
70421;SHT31;57848;51.938;15.520;2023-04-03T07:15:34;1.16;76.72
70421;SHT31;57848;51.938;15.520;2023-04-03T07:18:01;1.24;76.74
70421;SHT31;57848;51.938;15.520;2023-04-03T07:20:26;1.35;76.47
70421;SHT31;57848;51.938;15.520;2023-04-03T07:22:52;1.38;76.51
70421;SHT31;57848;51.938;15.520;2023-04-03T07:25:17;1.41;76.05
70421;SHT31;57848;51.938;15.520;2023-04-03T07:27:42;1.44;76.12
70421;SHT31;57848;51.938;15.520;2023-04-03T07:30:08;1.56;76.13
70421;SHT31;57848;51.938;15.520;2023-04-03T07:32:34;1.64;76.31
70421;SHT31;57848;51.938;15.520;2023-04-03T07:35:00;1.83;75.57
70421;SHT31;57848;51.938;15.520;2023-04-03T07:37:25;1.85;75.51
70421;SHT31;57848;51.938;15.520;2023-04-03T07:39:51;1.96;74.97
70421;SHT31;57848;51.938;15.520;2023-04-03T07:42:17;1.98;74.22
70421;SHT31;57848;51.938;15.520;2023-04-03T07:44:42;1.99;74.22
70421;SHT31;57848;51.938;15.520;2023-04-03T07:47:07;2.03;73.49
70421;SHT31;57848;51.938;15.520;2023-04-03T07:49:33;2.16;73.58
70421;SHT31;57848;51.938;15.520;2023-04-03T07:51:59;2.20;72.87
70421;SHT31;57848;51.938;15.520;2023-04-03T07:54:25;2.20;73.12
70421;SHT31;57848;51.938;15.520;2023-04-03T07:56:51;2.24;72.63
70421;SHT31;57848;51.938;15.520;2023-04-03T07:59:16;2.32;72.17
70421;SHT31;57848;51.938;15.520;2023-04-03T08:01:41;2.41;72.18
70421;SHT31;57848;51.938;15.520;2023-04-03T08:04:07;2.50;71.44
70421;SHT31;57848;51.938;15.520;2023-04-03T08:06:32;2.51;70.74
70421;SHT31;57848;51.938;15.520;2023-04-03T08:09:01;2.60;70.56
70421;SHT31;57848;51.938;15.520;2023-04-03T08:11:27;2.70;70.63
70421;SHT31;57848;51.938;15.520;2023-04-03T08:13:53;2.87;67.92
70421;SHT31;57848;51.938;15.520;2023-04-03T08:16:20;3.12;68.08
70421;SHT31;57848;51.938;15.520;2023-04-03T08:18:47;3.27;67.17
70421;SHT31;57848;51.938;15.520;2023-04-03T08:21:12;3.22;65.74
70421;SHT31;57848;51.938;15.520;2023-04-03T08:23:39;3.12;66.00
70421;SHT31;57848;51.938;15.520;2023-04-03T08:26:14;3.01;65.91
70421;SHT31;57848;51.938;15.520;2023-04-03T08:28:40;3.04;65.71
70421;SHT31;57848;51.938;15.520;2023-04-03T08:31:11;2.99;65.93
70421;SHT31;57848;51.938;15.520;2023-04-03T08:33:38;2.99;64.90
70421;SHT31;57848;51.938;15.520;2023-04-03T08:36:05;3.12;65.61
70421;SHT31;57848;51.938;15.520;2023-04-03T08:38:31;3.40;63.65
70421;SHT31;57848;51.938;15.520;2023-04-03T08:41:11;3.54;62.72
70421;SHT31;57848;51.938;15.520;2023-04-03T08:43:50;3.78;61.74
70421;SHT31;57848;51.938;15.520;2023-04-03T08:46:19;3.88;61.25
70421;SHT31;57848;51.938;15.520;2023-04-03T08:48:49;3.93;59.49
70421;SHT31;57848;51.938;15.520;2023-04-03T08:51:18;3.88;59.65
70421;SHT31;57848;51.938;15.520;2023-04-03T08:54:04;3.93;59.95
70421;SHT31;57848;51.938;15.520;2023-04-03T08:56:33;3.85;59.33
70421;SHT31;57848;51.938;15.520;2023-04-03T08:59:04;3.73;61.37
70421;SHT31;57848;51.938;15.520;2023-04-03T09:01:34;3.66;61.51
70421;SHT31;57848;51.938;15.520;2023-04-03T09:04:12;3.47;60.95
70421;SHT31;57848;51.938;15.520;2023-04-03T09:06:39;3.60;61.75
70421;SHT31;57848;51.938;15.520;2023-04-03T09:09:15;3.67;59.89
70421;SHT31;57848;51.938;15.520;2023-04-03T09:20:21;4.46;56.13
70421;SHT31;57848;51.938;15.520;2023-04-03T09:22:51;4.31;56.61
70421;SHT31;57848;51.938;15.520;2023-04-03T09:25:31;4.38;57.76
70421;SHT31;57848;51.938;15.520;2023-04-03T09:28:00;4.43;57.32
70421;SHT31;57848;51.938;15.520;2023-04-03T09:30:27;4.38;57.30
70421;SHT31;57848;51.938;15.520;2023-04-03T09:32:55;4.24;56.06
70421;SHT31;57848;51.938;15.520;2023-04-03T09:35:25;4.26;56.30
70421;SHT31;57848;51.938;15.520;2023-04-03T09:38:02;4.46;55.90
70421;SHT31;57848;51.938;15.520;2023-04-03T09:40:44;4.73;56.45
70421;SHT31;57848;51.938;15.520;2023-04-03T09:45:43;4.98;52.49
70421;SHT31;57848;51.938;15.520;2023-04-03T09:50:38;4.93;53.47
70421;SHT31;57848;51.938;15.520;2023-04-03T09:53:07;4.87;52.63
70421;SHT31;57848;51.938;15.520;2023-04-03T09:55:41;4.83;52.70
70421;SHT31;57848;51.938;15.520;2023-04-03T09:58:24;4.86;53.64
70421;SHT31;57848;51.938;15.520;2023-04-03T10:00:55;4.88;52.82
70421;SHT31;57848;51.938;15.520;2023-04-03T10:03:28;4.86;53.72
70421;SHT31;57848;51.938;15.520;2023-04-03T10:05:54;4.84;53.58
70421;SHT31;57848;51.938;15.520;2023-04-03T10:08:32;4.98;53.56
70421;SHT31;57848;51.938;15.520;2023-04-03T10:13:35;5.55;51.19
70421;SHT31;57848;51.938;15.520;2023-04-03T10:16:07;6.00;50.22
70421;SHT31;57848;51.938;15.520;2023-04-03T10:21:14;5.86;51.05
70421;SHT31;57848;51.938;15.520;2023-04-03T10:24:11;5.96;51.59
70421;SHT31;57848;51.938;15.520;2023-04-03T10:32:28;5.54;51.73
70421;SHT31;57848;51.938;15.520;2023-04-03T10:35:18;5.60;51.36
70421;SHT31;57848;51.938;15.520;2023-04-03T10:38:01;5.55;49.95
70421;SHT31;57848;51.938;15.520;2023-04-03T10:40:45;5.63;50.81
70421;SHT31;57848;51.938;15.520;2023-04-03T10:43:21;5.66;50.75
70421;SHT31;57848;51.938;15.520;2023-04-03T10:48:59;7.55;47.06
70421;SHT31;57848;51.938;15.520;2023-04-03T10:51:41;7.24;46.64
70421;SHT31;57848;51.938;15.520;2023-04-03T10:54:17;7.19;47.68
70421;SHT31;57848;51.938;15.520;2023-04-03T10:56:48;7.09;46.15
70421;SHT31;57848;51.938;15.520;2023-04-03T10:59:26;7.38;46.87
70421;SHT31;57848;51.938;15.520;2023-04-03T11:01:56;7.13;46.53
70421;SHT31;57848;51.938;15.520;2023-04-03T11:04:27;7.26;44.81
70421;SHT31;57848;51.938;15.520;2023-04-03T11:07:10;9.01;42.57
70421;SHT31;57848;51.938;15.520;2023-04-03T11:09:40;10.46;38.12
70421;SHT31;57848;51.938;15.520;2023-04-03T11:12:13;12.32;34.88
70421;SHT31;57848;51.938;15.520;2023-04-03T11:14:41;13.79;31.08
70421;SHT31;57848;51.938;15.520;2023-04-03T11:22:37;14.98;29.53
70421;SHT31;57848;51.938;15.520;2023-04-03T11:27:44;11.48;36.91
70421;SHT31;57848;51.938;15.520;2023-04-03T11:30:53;9.77;41.08
70421;SHT31;57848;51.938;15.520;2023-04-03T11:33:57;8.56;42.62
70421;SHT31;57848;51.938;15.520;2023-04-03T11:36:29;8.13;44.15
70421;SHT31;57848;51.938;15.520;2023-04-03T11:38:58;7.89;44.55
70421;SHT31;57848;51.938;15.520;2023-04-03T11:41:28;7.60;45.49
70421;SHT31;57848;51.938;15.520;2023-04-03T11:44:02;7.46;45.06
70421;SHT31;57848;51.938;15.520;2023-04-03T11:58:16;8.83;40.93
70421;SHT31;57848;51.938;15.520;2023-04-03T12:34:45;8.21;40.85
70421;SHT31;57848;51.938;15.520;2023-04-03T12:45:44;7.99;42.15
70421;SHT31;57848;51.938;15.520;2023-04-03T12:48:17;7.86;41.77
70421;SHT31;57848;51.938;15.520;2023-04-03T12:50:45;8.05;41.63
70421;SHT31;57848;51.938;15.520;2023-04-03T12:53:14;7.94;41.78
70421;SHT31;57848;51.938;15.520;2023-04-03T12:55:42;7.81;41.23
70421;SHT31;57848;51.938;15.520;2023-04-03T12:58:25;7.31;42.55
70421;SHT31;57848;51.938;15.520;2023-04-03T13:03:29;7.46;45.55
70421;SHT31;57848;51.938;15.520;2023-04-03T13:05:59;7.63;45.86
70421;SHT31;57848;51.938;15.520;2023-04-03T13:08:24;7.44;45.62
70421;SHT31;57848;51.938;15.520;2023-04-03T13:10:54;7.74;46.13
70421;SHT31;57848;51.938;15.520;2023-04-03T13:13:20;7.67;45.49
70421;SHT31;57848;51.938;15.520;2023-04-03T13:15:47;7.48;44.73
70421;SHT31;57848;51.938;15.520;2023-04-03T13:18:33;7.26;46.01
70421;SHT31;57848;51.938;15.520;2023-04-03T13:21:02;7.20;46.92
70421;SHT31;57848;51.938;15.520;2023-04-03T13:23:29;7.24;46.32
70421;SHT31;57848;51.938;15.520;2023-04-03T13:25:56;7.09;45.74
70421;SHT31;57848;51.938;15.520;2023-04-03T13:28:26;7.30;46.97
70421;SHT31;57848;51.938;15.520;2023-04-03T13:31:14;7.46;45.78
70421;SHT31;57848;51.938;15.520;2023-04-03T13:33:59;7.58;46.18
70421;SHT31;57848;51.938;15.520;2023-04-03T13:36:44;7.53;45.05
70421;SHT31;57848;51.938;15.520;2023-04-03T13:41:37;7.55;45.23
70421;SHT31;57848;51.938;15.520;2023-04-03T13:49:38;7.46;45.28
70421;SHT31;57848;51.938;15.520;2023-04-03T13:52:27;7.23;43.83
70421;SHT31;57848;51.938;15.520;2023-04-03T13:55:00;6.96;45.21
70421;SHT31;57848;51.938;15.520;2023-04-03T13:57:26;6.82;45.19
70421;SHT31;57848;51.938;15.520;2023-04-03T13:59:52;6.78;45.04
70421;SHT31;57848;51.938;15.520;2023-04-03T14:02:32;7.00;44.18
70421;SHT31;57848;51.938;15.520;2023-04-03T14:05:00;7.34;43.79
70421;SHT31;57848;51.938;15.520;2023-04-03T14:07:28;7.46;43.72
70421;SHT31;57848;51.938;15.520;2023-04-03T14:09:54;7.31;44.08
70421;SHT31;57848;51.938;15.520;2023-04-03T14:12:35;7.40;44.52
70421;SHT31;57848;51.938;15.520;2023-04-03T14:15:03;7.31;45.33
70421;SHT31;57848;51.938;15.520;2023-04-03T14:17:30;6.99;46.26
70421;SHT31;57848;51.938;15.520;2023-04-03T14:19:57;6.84;46.48
70421;SHT31;57848;51.938;15.520;2023-04-03T14:22:24;6.71;47.47
70421;SHT31;57848;51.938;15.520;2023-04-03T14:24:50;6.75;46.93
70421;SHT31;57848;51.938;15.520;2023-04-03T14:27:26;6.79;47.16
70421;SHT31;57848;51.938;15.520;2023-04-03T14:29:53;7.02;47.17
70421;SHT31;57848;51.938;15.520;2023-04-03T14:32:20;7.23;45.97
70421;SHT31;57848;51.938;15.520;2023-04-03T14:34:46;7.31;45.15
70421;SHT31;57848;51.938;15.520;2023-04-03T14:37:14;7.51;45.34
70421;SHT31;57848;51.938;15.520;2023-04-03T14:39:41;7.63;44.52
70421;SHT31;57848;51.938;15.520;2023-04-03T14:42:12;7.70;44.90
70421;SHT31;57848;51.938;15.520;2023-04-03T14:44:38;7.71;44.53
70421;SHT31;57848;51.938;15.520;2023-04-03T14:47:03;7.65;45.16
70421;SHT31;57848;51.938;15.520;2023-04-03T14:49:29;7.74;45.06
70421;SHT31;57848;51.938;15.520;2023-04-03T14:51:56;7.78;44.00
70421;SHT31;57848;51.938;15.520;2023-04-03T14:54:22;8.03;43.88
70421;SHT31;57848;51.938;15.520;2023-04-03T14:56:53;7.85;44.34
70421;SHT31;57848;51.938;15.520;2023-04-03T14:59:18;7.68;44.18
70421;SHT31;57848;51.938;15.520;2023-04-03T15:01:46;7.60;45.57
70421;SHT31;57848;51.938;15.520;2023-04-03T15:04:14;7.28;45.20
70421;SHT31;57848;51.938;15.520;2023-04-03T15:06:41;7.26;45.83
70421;SHT31;57848;51.938;15.520;2023-04-03T15:09:26;7.16;46.28
70421;SHT31;57848;51.938;15.520;2023-04-03T15:11:53;7.17;45.57
70421;SHT31;57848;51.938;15.520;2023-04-03T15:14:21;7.09;45.97
70421;SHT31;57848;51.938;15.520;2023-04-03T15:16:48;6.97;45.42
70421;SHT31;57848;51.938;15.520;2023-04-03T15:19:14;6.85;45.14
70421;SHT31;57848;51.938;15.520;2023-04-03T15:21:40;6.76;45.15
70421;SHT31;57848;51.938;15.520;2023-04-03T15:24:05;6.58;46.07
70421;SHT31;57848;51.938;15.520;2023-04-03T15:26:31;6.61;46.18
70421;SHT31;57848;51.938;15.520;2023-04-03T15:28:57;6.58;46.11
70421;SHT31;57848;51.938;15.520;2023-04-03T15:31:22;6.76;46.07
70421;SHT31;57848;51.938;15.520;2023-04-03T15:33:48;7.06;45.91
70421;SHT31;57848;51.938;15.520;2023-04-03T15:36:13;7.09;45.14
70421;SHT31;57848;51.938;15.520;2023-04-03T15:38:38;6.71;44.70
70421;SHT31;57848;51.938;15.520;2023-04-03T15:41:04;6.61;45.81
70421;SHT31;57848;51.938;15.520;2023-04-03T15:43:30;6.59;46.30
70421;SHT31;57848;51.938;15.520;2023-04-03T15:45:57;6.86;46.41
70421;SHT31;57848;51.938;15.520;2023-04-03T15:48:24;7.19;45.00
70421;SHT31;57848;51.938;15.520;2023-04-03T15:50:49;7.20;45.17
70421;SHT31;57848;51.938;15.520;2023-04-03T15:53:15;7.07;45.39
70421;SHT31;57848;51.938;15.520;2023-04-03T15:55:40;6.72;46.76
70421;SHT31;57848;51.938;15.520;2023-04-03T15:58:06;6.74;47.07
70421;SHT31;57848;51.938;15.520;2023-04-03T16:00:32;6.56;47.43
70421;SHT31;57848;51.938;15.520;2023-04-03T16:03:01;6.58;47.77
70421;SHT31;57848;51.938;15.520;2023-04-03T16:05:29;6.48;47.16
70421;SHT31;57848;51.938;15.520;2023-04-03T16:07:57;6.51;47.85
70421;SHT31;57848;51.938;15.520;2023-04-03T16:10:23;6.46;47.34
70421;SHT31;57848;51.938;15.520;2023-04-03T16:12:48;6.52;47.78
70421;SHT31;57848;51.938;15.520;2023-04-03T16:15:13;6.56;48.20
70421;SHT31;57848;51.938;15.520;2023-04-03T16:17:40;6.54;48.64
70421;SHT31;57848;51.938;15.520;2023-04-03T16:20:09;6.40;46.61
70421;SHT31;57848;51.938;15.520;2023-04-03T16:22:36;6.34;46.98
70421;SHT31;57848;51.938;15.520;2023-04-03T16:25:03;6.14;46.30
70421;SHT31;57848;51.938;15.520;2023-04-03T16:27:29;6.07;47.79
70421;SHT31;57848;51.938;15.520;2023-04-03T16:29:56;6.06;47.37
70421;SHT31;57848;51.938;15.520;2023-04-03T16:32:23;6.09;47.79
70421;SHT31;57848;51.938;15.520;2023-04-03T16:34:49;5.90;48.13
70421;SHT31;57848;51.938;15.520;2023-04-03T16:37:16;5.93;48.71
70421;SHT31;57848;51.938;15.520;2023-04-03T16:39:41;5.82;48.78
70421;SHT31;57848;51.938;15.520;2023-04-03T16:42:06;5.79;48.94
70421;SHT31;57848;51.938;15.520;2023-04-03T16:44:34;5.80;49.28
70421;SHT31;57848;51.938;15.520;2023-04-03T16:47:00;5.72;49.28
70421;SHT31;57848;51.938;15.520;2023-04-03T16:49:25;5.69;49.25
70421;SHT31;57848;51.938;15.520;2023-04-03T16:51:55;5.66;50.38
70421;SHT31;57848;51.938;15.520;2023-04-03T16:54:20;5.65;49.18
70421;SHT31;57848;51.938;15.520;2023-04-03T16:56:46;5.62;49.03
70421;SHT31;57848;51.938;15.520;2023-04-03T16:59:11;5.54;49.98
70421;SHT31;57848;51.938;15.520;2023-04-03T17:01:36;5.51;50.49
70421;SHT31;57848;51.938;15.520;2023-04-03T17:04:02;5.44;49.80
70421;SHT31;57848;51.938;15.520;2023-04-03T17:06:27;5.48;50.08
70421;SHT31;57848;51.938;15.520;2023-04-03T17:08:52;5.44;50.60
70421;SHT31;57848;51.938;15.520;2023-04-03T17:11:28;5.39;50.97
70421;SHT31;57848;51.938;15.520;2023-04-03T17:13:53;5.36;52.05
70421;SHT31;57848;51.938;15.520;2023-04-03T17:16:19;5.35;52.78
70421;SHT31;57848;51.938;15.520;2023-04-03T17:18:45;5.34;51.83
70421;SHT31;57848;51.938;15.520;2023-04-03T17:21:11;5.36;51.31